CW6020 Teulada ES current weather conditions

sailwx.info

Wind from 090

Air temperature 23.3° C
Dewpoint 22.5° C

Last reported at 2014-Aug-29 00:50 UTC.
Time now 2014-Aug-29 01:32 UTC

Location: N 38°44' E 000°06'.
View on Google Maps.

See reports from other nearby stations

  
Tides and Currents Weather Stations Pressure Air Temp Water Temp Dewpoint Dewpoint Depression Visibility Wind Speed Wind Dir Waves Ship Positions
date/time (UTC)wind fromknots sea level pressurealtimeterstation pressurevisibilityair tempwater tempwave heightnotes
2014-Aug-29 00:50 090 23.3
2014-Aug-29 00:40 23.3
2014-Aug-29 00:30 330 23.3
2014-Aug-29 00:20 315 23.9
2014-Aug-29 00:10 315 23.9
2014-Aug-28 23:40 255 23.9
2014-Aug-28 23:21 270 23.9
2014-Aug-28 22:50 330 0 gusting 1 24.4
2014-Aug-28 22:40 165 24.4
2014-Aug-28 22:20 240 0 gusting 1 24.4
2014-Aug-28 22:00 150 24.4
2014-Aug-28 21:51 165 2 gusting 4 24.4
2014-Aug-28 20:40 180 6 gusting 9 25.0
2014-Aug-28 20:30 180 6 gusting 6 25.0
2014-Aug-28 20:20 180 3 gusting 6 25.0
2014-Aug-28 19:50 142 7 gusting 9 25.0
2014-Aug-28 19:30 180 5 gusting 6 25.6
2014-Aug-28 19:20 180 6 gusting 8 25.6
2014-Aug-28 18:50 180 9 gusting 13 25.6
2014-Aug-28 18:10 180 6 gusting 9 26.1
2014-Aug-28 18:00 180 8 gusting 9 26.1
2014-Aug-28 17:50 195 6 gusting 9 26.1
2014-Aug-28 17:30 112 6 gusting 9 26.7
2014-Aug-28 17:20 195 6 gusting 9 26.7
2014-Aug-28 17:10 180 5 gusting 6 27.2
2014-Aug-28 16:40 150 6 gusting 10 28.3
2014-Aug-28 16:30 150 7 gusting 11 28.9
2014-Aug-28 16:21 180 7 gusting 10 28.9
2014-Aug-28 15:50 172 6 gusting 9 28.9
2014-Aug-28 15:40 187 6 gusting 8 29.4
2014-Aug-28 15:30 135 4 gusting 7 28.9
2014-Aug-28 15:20 165 6 gusting 8 29.4
2014-Aug-28 15:00 150 6 gusting 8 30.6
2014-Aug-28 14:50 165 6 gusting 9 30.6
2014-Aug-28 14:40 180 6 gusting 10 31.1
2014-Aug-28 14:30 187 6 gusting 8 31.7
2014-Aug-28 14:00 105 3 gusting 5 32.2
2014-Aug-28 13:50 135 5 gusting 9 32.8
2014-Aug-28 13:40 165 4 gusting 6 33.3
2014-Aug-28 13:30 180 4 gusting 6 33.3
2014-Aug-28 13:20 150 5 gusting 8 33.9
2014-Aug-28 13:00 135 3 gusting 6 33.3
2014-Aug-28 12:50 172 3 gusting 6 33.9
2014-Aug-28 12:40 165 6 gusting 9 33.9
2014-Aug-28 12:30 180 4 gusting 6 33.9
2014-Aug-28 12:00 060 3 gusting 6 34.4
2014-Aug-28 11:30 105 6 gusting 9 33.9
2014-Aug-28 11:20 105 3 gusting 5 33.9
2014-Aug-28 10:50 165 2 gusting 3 33.9
2014-Aug-28 10:20 247 1 gusting 2 33.9
2014-Aug-28 10:10 180 2 gusting 3 33.3
2014-Aug-28 09:40 240 1 gusting 2 32.2
2014-Aug-28 09:20 255 1 gusting 2 31.1
2014-Aug-28 09:10 090 1 gusting 3 30.6
2014-Aug-28 09:00 195 1 gusting 3 29.4
2014-Aug-28 08:50 090 2 gusting 5 28.3
2014-Aug-28 08:40 315 1 gusting 1 28.3
2014-Aug-28 08:00 315 1 gusting 3 26.7
2014-Aug-28 07:50 255 3 gusting 9 26.7
2014-Aug-28 07:30 345 2 gusting 4 25.6
2014-Aug-28 07:20 315 1 gusting 6 25.6
2014-Aug-28 07:10 300 1 gusting 4 25.0
2014-Aug-28 07:00 315 1 gusting 3 24.4
2014-Aug-28 06:50 315 1 gusting 3 23.9
2014-Aug-28 06:30 330 1 gusting 1 23.9
2014-Aug-28 06:20 330 1 gusting 2 23.3
2014-Aug-28 06:10 315 1 gusting 3 23.3
2014-Aug-28 06:00 345 3 gusting 4 23.3
2014-Aug-28 04:50 307 3 gusting 5 23.9
2014-Aug-28 04:40 330 5 gusting 7 23.9
2014-Aug-28 04:30 330 3 gusting 6 23.9
2014-Aug-28 04:20 322 5 gusting 6 23.9
2014-Aug-28 04:00 007 2 gusting 5 23.9
2014-Aug-28 03:40 315 3 gusting 6 23.9
2014-Aug-28 03:30 322 1 gusting 5 23.9
2014-Aug-28 03:10 300 1 gusting 2 23.9
2014-Aug-28 03:00 23.9
2014-Aug-28 02:50 345 1 gusting 2 23.9
2014-Aug-28 02:40 337 0 gusting 1 23.9
2014-Aug-28 01:50 180 0 gusting 1 23.9
2014-Aug-28 01:40 300 1 gusting 1 23.9
2014-Aug-28 01:30 030 2 gusting 5 23.9
2014-Aug-28 01:20 337 1 gusting 2 23.9
2014-Aug-28 01:10 315 2 gusting 6 23.9
2014-Aug-28 01:00 322 2 gusting 3 23.9
2014-Aug-28 00:20 330 1 gusting 3 24.4
2014-Aug-28 00:10 345 1 gusting 3 24.4
2014-Aug-28 00:00 352 1 gusting 4 24.4
2014-Aug-27 23:20 352 2 gusting 4 24.4
2014-Aug-27 23:10 247 1 gusting 3 24.4
2014-Aug-27 23:00 255 0 gusting 1 24.4
2014-Aug-27 22:30 037 0 gusting 1 24.4
2014-Aug-27 22:20 082 24.4
2014-Aug-27 21:40 195 1 gusting 4 24.4
2014-Aug-27 21:30 135 1 gusting 3 24.4
2014-Aug-27 21:20 180 1 gusting 2 24.4
2014-Aug-27 21:10 120 2 gusting 3 25.0
2014-Aug-27 21:00 165 1 gusting 3 25.0
2014-Aug-27 20:50 120 2 gusting 4 25.0
2014-Aug-27 20:40 345 1 gusting 3 25.0
2014-Aug-27 20:30 105 2 gusting 3 25.0
2014-Aug-27 20:20 180 1 gusting 4 25.0
2014-Aug-27 20:00 060 3 gusting 5 25.6
2014-Aug-27 19:30 105 0 gusting 0 25.6
2014-Aug-27 19:00 255 0 gusting 1 26.1
2014-Aug-27 18:40 060 1 gusting 3 27.2
2014-Aug-27 18:30 240 27.8
2014-Aug-27 18:20 300 0 gusting 1 28.3
2014-Aug-27 18:10 315 0 gusting 1 28.9
2014-Aug-27 18:00 270 1 gusting 2 28.9
2014-Aug-27 17:50 330 1 gusting 2 29.4
2014-Aug-27 17:40 090 0 gusting 1 30.0
2014-Aug-27 17:30 090 1 gusting 2 30.6
2014-Aug-27 16:50 180 1 gusting 3 31.1
2014-Aug-27 16:40 165 1 gusting 3 31.7
2014-Aug-27 16:30 195 0 gusting 1 32.2
2014-Aug-27 16:20 247 1 gusting 3 32.8
2014-Aug-27 16:10 345 1 gusting 3 32.2
2014-Aug-27 15:40 045 2 gusting 3 32.8
2014-Aug-27 15:30 195 3 gusting 5 32.8
2014-Aug-27 15:10 217 1 gusting 4 33.3
2014-Aug-27 14:50 240 1 gusting 3 33.9
2014-Aug-27 14:40 300 2 gusting 3 34.4
2014-Aug-27 14:20 165 3 gusting 5 34.4
2014-Aug-27 14:00 015 3 gusting 5 35.0
2014-Aug-27 13:40 330 2 gusting 6 35.0
2014-Aug-27 13:20 045 4 gusting 7 36.1
2014-Aug-27 12:50 285 1 gusting 4 35.6
2014-Aug-27 12:30 270 2 gusting 5 35.6
2014-Aug-27 12:10 180 1 gusting 5 35.6
2014-Aug-27 11:50 33.9
2014-Aug-27 11:40 285 3 gusting 6 33.3
2014-Aug-27 11:30 315 1 gusting 3 32.8
2014-Aug-27 11:10 262 6 gusting 11 31.1
2014-Aug-27 10:50 315 6 gusting 8 31.1
2014-Aug-27 10:40 345 4 gusting 7 30.6
2014-Aug-27 10:30 330 3 gusting 5 30.6
2014-Aug-27 10:20 330 5 gusting 9 30.0
2014-Aug-27 09:50 030 6 gusting 9 29.4
2014-Aug-27 09:30 007 3 gusting 4 28.9
2014-Aug-27 09:20 28.9
2014-Aug-27 08:30 322 8 gusting 13 27.2
2014-Aug-27 08:20 322 5 gusting 8 26.7
2014-Aug-27 08:10 26.7
2014-Aug-27 08:00 015 6 gusting 9 26.7
2014-Aug-27 07:30 330 3 gusting 6 26.1
2014-Aug-27 06:50 345 7 gusting 14 25.6
2014-Aug-27 06:40 330 4 gusting 6 25.6
2014-Aug-27 06:30 330 4 gusting 7 25.6
2014-Aug-27 06:00 015 4 gusting 9 25.6
2014-Aug-27 05:50 25.6
2014-Aug-27 05:40 015 4 gusting 8 25.6
2014-Aug-27 05:10 007 3 gusting 3 25.6
2014-Aug-27 05:00 322 3 gusting 7 26.1
2014-Aug-27 04:50 345 3 gusting 6 26.1
2014-Aug-27 04:30 26.7
2014-Aug-27 04:20 330 3 gusting 6 26.7
2014-Aug-27 03:50 105 1 gusting 3 26.7
2014-Aug-27 03:40 300 1 gusting 3 27.2
2014-Aug-27 03:20 345 3 gusting 6 27.8
2014-Aug-27 02:40 285 2 gusting 4 26.1
2014-Aug-27 01:40 105 0 gusting 1 21.7
2014-Aug-27 01:20 165 0 gusting 1 21.1
2014-Aug-27 01:10 165 1 gusting 1 21.1